Terminal Aerodrome Forecast
Issued by NWS

Home | Current Version | Previous Version | Text Only | Print | Product List | Glossary On
Versions: 1 2 3 4 5 6 7 8 9 10 11 12 13 14 15
000
FTUS45 KRIW 272335
TAFRKS
TAF
KRKS 272335Z 2800/2824 34012G25KT P6SM -TSRA BKN070CB
     FM280100 VRB08G15KT P6SM VCTS SCT070CB BKN100
     FM280300 VRB06KT P6SM SCT080
     FM282000 28012KT P6SM SCT080 BKN100=

USA.gov is the U.S. government's official web portal to all federal, state and local government web resources and services.